Time;durP1;ratioP1;P1;durP2;ratioP2;P2;SDS_P1;SDS_P2;PMS_P1;PMS_P2;Temp;Humidity;BMP_temperature;BMP_pressure;BME280_temperature;BME280_humidity;BME280_pressure;Samples;Min_cycle;Max_cycle;Signal;HPM_P1;HPM_P2
2022/07/09 00:00:59;;;;;;;9.70;7.15;;;;;;;17.61;79.41;94979.25;5070971;28;20124;-82
2022/07/09 00:03:25;;;;;;;9.60;8.32;;;;;;;18.16;80.13;95097.22;5083103;28;20043;-81
2022/07/09 00:05:50;;;;;;;10.95;8.43;;;;;;;17.90;80.72;95075.88;5073842;28;20036;-81
2022/07/09 00:08:15;;;;;;;10.40;9.23;;;;;;;18.26;80.29;95142.50;5070046;28;20171;-81
2022/07/09 00:10:41;;;;;;;14.60;10.65;;;;;;;18.12;80.66;95123.16;5080397;28;20557;-80
2022/07/09 00:13:07;;;;;;;12.80;11.20;;;;;;;18.55;80.77;95170.47;5086017;28;20051;-79
2022/07/09 00:15:32;;;;;;;12.40;11.10;;;;;;;18.24;81.38;95133.97;5070941;28;20422;-80
2022/07/09 00:17:58;;;;;;;11.23;8.80;;;;;;;17.73;81.37;95075.94;5065880;28;20036;-80
2022/07/09 00:20:23;;;;;;;7.15;6.20;;;;;;;17.70;80.53;95114.91;5071842;28;20067;-81
2022/07/09 00:22:49;;;;;;;11.23;6.80;;;;;;;17.78;81.09;95145.50;5069476;28;20040;-81
2022/07/09 00:25:14;;;;;;;9.20;6.00;;;;;;;17.12;81.86;95056.47;5069000;28;20455;-81
2022/07/09 00:27:39;;;;;;;7.78;6.68;;;;;;;17.76;82.46;95150.41;5073769;28;20035;-81
2022/07/09 00:30:05;;;;;;;12.13;6.78;;;;;;;17.25;83.02;95071.59;5068184;28;20035;-80
2022/07/09 00:32:31;;;;;;;7.03;6.03;;;;;;;16.94;nan;95030.81;5068950;28;20069;-81
2022/07/09 00:34:56;;;;;;;8.63;6.60;;;;;;;17.38;82.78;95093.19;5088890;28;20032;-81
2022/07/09 00:37:22;;;;;;;10.65;6.32;;;;;;;17.83;82.55;95149.91;5071193;28;20119;-81
2022/07/09 00:39:47;;;;;;;8.07;6.57;;;;;;;17.17;83.11;95066.25;5084481;28;20114;-81
2022/07/09 00:42:13;;;;;;;8.93;6.05;;;;;;;17.54;82.60;95137.97;5067459;28;20032;-81
2022/07/09 00:44:38;;;;;;;7.78;6.38;;;;;;;16.80;83.15;95052.41;5070458;28;20032;-82
2022/07/09 00:47:06;;;;;;;6.70;5.40;;;;;;;16.95;83.43;95105.50;5071094;28;20637;-81
2022/07/09 00:49:36;;;;;;;6.72;6.03;;;;;;;16.91;84.08;95067.06;5067911;28;20053;-82
2022/07/09 00:52:02;;;;;;;7.18;6.28;;;;;;;17.00;84.95;95074.31;5084914;28;20068;-82
2022/07/09 00:54:27;;;;;;;6.90;5.32;;;;;;;17.02;84.27;95120.31;5068717;28;20117;-82
2022/07/09 00:56:53;;;;;;;9.00;6.05;;;;;;;16.31;83.94;95002.75;5089897;28;20363;-82
2022/07/09 00:59:20;;;;;;;9.25;6.20;;;;;;;16.42;84.68;95005.91;5069645;28;20064;-82
2022/07/09 01:01:46;;;;;;;9.13;7.22;;;;;;;17.40;85.55;95134.63;5070543;28;20047;-82
2022/07/09 01:04:11;;;;;;;10.52;6.72;;;;;;;16.68;85.20;95025.47;5055763;28;20041;-82
2022/07/09 01:06:37;;;;;;;8.10;6.22;;;;;;;16.81;84.37;95040.59;5055725;28;20032;-83
2022/07/09 01:09:03;;;;;;;9.60;6.47;;;;;;;17.02;84.88;95139.06;5070156;28;20144;-82
2022/07/09 01:11:30;;;;;;;6.35;5.75;;;;;;;16.90;85.38;95126.31;5071104;28;20131;-82
2022/07/09 01:13:56;;;;;;;9.88;7.38;;;;;;;16.98;85.31;95125.53;5064847;28;20423;-83
2022/07/09 01:16:23;;;;;;;8.57;6.75;;;;;;;15.95;85.43;94991.50;5053771;28;20032;-83
2022/07/09 01:18:49;;;;;;;10.73;7.18;;;;;;;16.41;86.43;95088.06;5053150;28;20039;-83
2022/07/09 01:21:15;;;;;;;8.45;7.15;;;;;;;16.86;86.77;95120.78;5061941;28;20041;-82
2022/07/09 01:23:41;;;;;;;9.82;7.20;;;;;;;15.68;86.25;94973.81;5059505;28;20028;-82
2022/07/09 01:26:07;;;;;;;9.20;6.38;;;;;;;16.42;86.10;95051.41;5065460;28;20055;-82
2022/07/09 01:28:33;;;;;;;11.00;6.35;;;;;;;16.41;85.49;95055.97;5055683;28;20033;-82
2022/07/09 01:30:59;;;;;;;7.07;5.93;;;;;;;16.73;86.06;95124.38;5051784;28;20037;-81
2022/07/09 01:33:25;;;;;;;7.38;6.05;;;;;;;15.93;86.97;95023.91;5073290;28;20032;-81
2022/07/09 01:35:50;;;;;;;15.15;6.60;;;;;;;16.80;87.46;95113.22;5069737;28;20036;-81
2022/07/09 01:38:16;;;;;;;7.75;6.38;;;;;;;16.31;86.43;95048.25;5068513;28;20594;-81
2022/07/09 01:40:41;;;;;;;11.60;6.50;;;;;;;16.14;86.21;95016.88;5052620;28;20086;-81
2022/07/09 01:43:07;;;;;;;7.88;5.22;;;;;;;16.36;85.53;95080.19;5049194;28;20040;-81
2022/07/09 01:45:32;;;;;;;7.10;5.00;;;;;;;16.10;86.01;95021.28;5049333;28;20152;-82
2022/07/09 01:47:58;;;;;;;8.75;5.88;;;;;;;16.43;86.48;95053.75;5067534;28;20044;-82
2022/07/09 01:50:23;;;;;;;10.07;5.20;;;;;;;16.15;86.32;95021.16;5061901;28;20510;-83
2022/07/09 01:52:50;;;;;;;6.60;5.00;;;;;;;16.28;85.49;95069.47;5056902;28;20247;-82
2022/07/09 01:55:16;;;;;;;6.30;5.15;;;;;;;16.08;86.15;95017.34;5066608;28;20486;-82
2022/07/09 01:57:41;;;;;;;6.97;4.80;;;;;;;16.65;85.91;95111.78;5065418;28;20055;-82
2022/07/09 02:00:08;;;;;;;9.10;5.05;;;;;;;15.91;86.55;95033.34;5066765;28;20366;-82
2022/07/09 02:02:34;;;;;;;10.35;5.07;;;;;;;16.56;86.76;95094.88;5065123;28;20036;-82
2022/07/09 02:04:59;;;;;;;6.97;4.95;;;;;;;16.35;85.46;95065.25;5065489;28;20104;-83
2022/07/09 02:07:25;;;;;;;6.10;5.10;;;;;;;16.60;85.56;95074.41;5050042;28;20066;-83
2022/07/09 02:09:51;;;;;;;5.97;4.70;;;;;;;16.18;85.11;95019.72;5044271;28;20033;-83
2022/07/09 02:12:17;;;;;;;6.20;4.63;;;;;;;15.93;84.82;94978.47;5061659;28;20477;-83
2022/07/09 02:14:43;;;;;;;6.97;4.55;;;;;;;16.34;84.31;95046.81;5063785;28;20032;-84
2022/07/09 02:17:08;;;;;;;4.97;4.32;;;;;;;16.10;84.50;95036.53;5048201;28;20419;-84
2022/07/09 02:19:34;;;;;;;5.68;5.07;;;;;;;15.98;85.17;95006.94;5068382;28;20040;-83
2022/07/09 02:21:59;;;;;;;9.75;5.15;;;;;;;16.41;85.46;95064.00;5064965;28;20047;-84
2022/07/09 02:24:25;;;;;;;9.43;4.45;;;;;;;16.94;84.36;95127.25;5053791;28;20078;-84
2022/07/09 02:26:50;;;;;;;8.93;5.05;;;;;;;16.73;84.34;95076.19;5071553;28;20036;-85
2022/07/09 02:29:15;;;;;;;5.10;4.60;;;;;;;17.04;84.59;95110.06;5064226;28;20039;-85
2022/07/09 02:31:41;;;;;;;7.75;4.38;;;;;;;16.68;82.89;95079.03;5058580;28;20051;-83
2022/07/09 02:34:06;;;;;;;10.45;4.75;;;;;;;17.15;82.70;95135.47;5070152;28;20124;-84
2022/07/09 02:36:32;;;;;;;6.40;4.40;;;;;;;16.83;83.50;95062.50;5062244;28;20135;-85
2022/07/09 02:38:57;;;;;;;7.28;4.55;;;;;;;17.04;83.41;95085.97;5052486;28;20105;-84
2022/07/09 02:41:22;;;;;;;8.05;4.43;;;;;;;16.74;82.48;95034.13;5041996;28;20033;-84
2022/07/09 02:43:48;;;;;;;5.85;3.88;;;;;;;17.15;82.14;95105.97;5039170;28;20060;-84
2022/07/09 02:46:13;;;;;;;4.53;4.07;;;;;;;17.33;81.30;95116.34;5040104;28;20033;-84
2022/07/09 02:48:39;;;;;;;7.38;4.07;;;;;;;17.07;81.66;95083.44;5040026;28;20037;-84
2022/07/09 02:51:05;;;;;;;7.68;4.28;;;;;;;17.01;82.34;95074.00;5054785;28;20032;-84
2022/07/09 02:53:30;;;;;;;7.85;4.22;;;;;;;17.39;81.97;95134.97;5058058;28;20040;-84
2022/07/09 02:55:56;;;;;;;5.78;3.92;;;;;;;16.37;82.12;94992.69;5040631;28;20410;-84
2022/07/09 02:58:22;;;;;;;6.85;4.38;;;;;;;17.36;82.35;95114.94;5068344;28;20055;-84
2022/07/09 03:00:47;;;;;;;9.25;4.55;;;;;;;16.83;81.28;95008.94;5065295;28;20027;-84
2022/07/09 03:03:13;;;;;;;4.53;4.05;;;;;;;17.05;80.71;95066.09;5080223;28;20032;-84
2022/07/09 03:05:38;;;;;;;5.45;4.53;;;;;;;17.51;81.58;95124.38;5062577;28;20039;-84
2022/07/09 03:08:05;;;;;;;4.43;3.83;;;;;;;17.36;79.89;95078.22;5056290;28;20036;-84
2022/07/09 03:10:31;;;;;;;4.47;3.92;;;;;;;17.82;80.41;95157.16;5059477;28;20095;-85
2022/07/09 03:12:56;;;;;;;4.20;3.75;;;;;;;17.20;80.44;95106.59;5058541;28;20119;-85
2022/07/09 03:15:22;;;;;;;6.80;3.85;;;;;;;17.44;80.92;95127.56;5055895;28;20125;-85
2022/07/09 03:17:48;;;;;;;5.95;3.97;;;;;;;17.17;80.88;95125.19;5055952;28;20121;-85
2022/07/09 03:20:13;;;;;;;10.15;4.47;;;;;;;17.35;80.31;95124.88;5068317;28;20038;-85
2022/07/09 03:22:40;;;;;;;7.53;4.20;;;;;;;16.62;81.03;95047.38;5059690;28;20464;-84
2022/07/09 03:25:06;;;;;;;5.00;4.60;;;;;;;17.33;81.42;95137.00;5058257;28;20040;-85
2022/07/09 03:27:32;;;;;;;6.30;4.45;;;;;;;17.36;80.97;95144.44;5059302;28;20093;-85
2022/07/09 03:29:58;;;;;;;5.50;3.95;;;;;;;16.75;81.32;95071.31;5058962;28;20043;-85
2022/07/09 03:32:24;;;;;;;6.70;4.05;;;;;;;16.83;81.90;95070.53;5077931;28;20036;-85
2022/07/09 03:34:52;;;;;;;5.45;4.70;;;;;;;17.45;82.00;95150.59;5059328;28;20478;-85
2022/07/09 03:37:17;;;;;;;4.95;4.45;;;;;;;17.30;81.89;95105.50;5061530;28;20545;-85
2022/07/09 03:39:43;;;;;;;14.55;4.85;;;;;;;17.39;80.75;95118.91;5061903;28;20090;-85
2022/07/09 03:42:08;;;;;;;6.28;4.50;;;;;;;16.38;81.93;94951.44;5096060;28;20058;-85
2022/07/09 03:44:34;;;;;;;8.88;4.43;;;;;;;17.57;82.51;95118.53;5062215;28;20112;-85
2022/07/09 03:47:00;;;;;;;6.47;5.18;;;;;;;17.60;81.51;95101.81;5068549;28;20116;-85
2022/07/09 03:49:25;;;;;;;6.15;4.75;;;;;;;16.98;79.81;95008.44;5093648;28;20035;-85
2022/07/09 03:51:51;;;;;;;7.68;5.50;;;;;;;17.20;79.52;95039.59;5081356;28;20035;-85
2022/07/09 03:54:17;;;;;;;8.95;5.25;;;;;;;17.86;80.47;95151.94;5062403;28;20036;-85
2022/07/09 03:56:42;;;;;;;8.88;5.50;;;;;;;17.80;80.05;95118.34;5058299;28;20040;-85
2022/07/09 03:59:08;;;;;;;8.05;6.07;;;;;;;17.20;78.98;95023.53;5060639;28;20063;-86
2022/07/09 04:01:33;;;;;;;9.02;5.82;;;;;;;17.29;79.76;95077.91;5062176;28;20512;-85
2022/07/09 04:03:58;;;;;;;7.38;6.45;;;;;;;16.88;81.18;95067.69;5047107;28;20040;-85
2022/07/09 04:06:24;;;;;;;6.70;6.10;;;;;;;17.13;81.30;95122.38;5060951;28;20806;-85
2022/07/09 04:08:50;;;;;;;6.45;5.55;;;;;;;16.91;81.83;95096.53;5062520;28;20502;-85
2022/07/09 04:11:15;;;;;;;7.75;6.50;;;;;;;16.71;83.38;95053.50;5080081;28;20379;-85
2022/07/09 04:13:41;;;;;;;6.85;6.22;;;;;;;17.06;83.08;95089.13;5062514;28;20032;-85
2022/07/09 04:16:06;;;;;;;7.85;6.00;;;;;;;17.39;82.31;95151.06;5062092;28;20062;-84
2022/07/09 04:18:33;;;;;;;10.50;6.60;;;;;;;16.75;82.40;95044.53;5062282;28;20028;-84
2022/07/09 04:20:58;;;;;;;10.93;5.30;;;;;;;16.99;82.96;95116.38;5079801;28;20621;-85
2022/07/09 04:23:24;;;;;;;5.28;4.55;;;;;;;17.15;81.86;95146.19;5062530;28;20339;-84
2022/07/09 04:25:50;;;;;;;9.82;5.70;;;;;;;16.61;82.55;95027.06;5080454;28;20081;-84
2022/07/09 04:28:18;;;;;;;6.75;5.10;;;;;;;16.41;82.05;95009.66;5061461;28;20044;-84
2022/07/09 04:30:44;;;;;;;7.85;5.65;;;;;;;16.96;82.19;95099.03;5061362;28;20023;-84
2022/07/09 04:33:09;;;;;;;5.10;4.47;;;;;;;15.75;82.11;94897.41;5061059;28;20502;-84
2022/07/09 04:35:35;;;;;;;6.05;4.70;;;;;;;16.95;82.06;95075.25;5061553;28;20471;-84
2022/07/09 04:38:01;;;;;;;5.85;4.82;;;;;;;15.97;82.15;94923.22;5061415;28;20032;-84
2022/07/09 04:40:27;;;;;;;8.65;4.72;;;;;;;16.59;81.20;95049.53;5061241;28;20039;-84
2022/07/09 04:42:52;;;;;;;8.90;4.63;;;;;;;17.27;81.12;95163.19;5046677;28;20032;-84
2022/07/09 04:45:18;;;;;;;7.90;5.30;;;;;;;17.24;82.89;95158.44;5078177;28;20039;-83
2022/07/09 04:47:43;;;;;;;11.35;5.45;;;;;;;16.88;83.22;95094.47;5061342;28;20486;-84
2022/07/09 04:50:10;;;;;;;7.85;5.32;;;;;;;16.82;82.00;95065.47;5060689;28;20419;-84
2022/07/09 04:52:37;;;;;;;8.73;5.50;;;;;;;17.09;82.09;95099.97;5061378;28;20024;-84
2022/07/09 04:55:03;;;;;;;6.82;5.63;;;;;;;16.90;82.67;95045.94;5080896;28;20395;-84
2022/07/09 04:57:29;;;;;;;7.35;5.90;;;;;;;17.09;81.94;95086.56;5075791;28;20048;-84
2022/07/09 04:59:58;;;;;;;7.57;5.55;;;;;;;17.54;82.17;95155.94;5060882;28;20407;-84
2022/07/09 05:02:24;;;;;;;6.45;5.85;;;;;;;17.08;82.62;95111.03;5055332;28;20097;-84
2022/07/09 05:04:50;;;;;;;5.95;4.22;;;;;;;17.42;81.96;95153.09;5048794;28;20036;-84
2022/07/09 05:07:15;;;;;;;7.32;5.20;;;;;;;16.75;82.37;95041.06;5079464;28;20479;-84
2022/07/09 05:09:40;;;;;;;8.40;5.55;;;;;;;16.29;81.77;95010.31;5061460;28;20031;-84
2022/07/09 05:12:08;;;;;;;6.38;5.70;;;;;;;17.20;82.49;95141.44;5061014;28;20039;-84
2022/07/09 05:14:34;;;;;;;9.60;5.47;;;;;;;16.64;82.62;95062.00;5066732;28;20043;-84
2022/07/09 05:16:59;;;;;;;8.90;5.68;;;;;;;17.26;83.01;95131.34;5060918;28;20036;-84
2022/07/09 05:19:24;;;;;;;5.35;4.60;;;;;;;17.14;82.19;95115.91;5060173;28;20036;-84
2022/07/09 05:21:50;;;;;;;6.75;5.50;;;;;;;17.46;81.53;95175.50;5056668;28;20048;-84
2022/07/09 05:24:15;;;;;;;10.10;4.95;;;;;;;16.65;81.43;95076.97;5059630;28;20027;-84
2022/07/09 05:26:41;;;;;;;8.13;4.88;;;;;;;17.23;82.08;95153.44;5057392;28;20035;-84
2022/07/09 05:29:06;;;;;;;8.00;4.95;;;;;;;16.81;82.12;95094.16;5060334;28;20297;-84
2022/07/09 05:31:32;;;;;;;5.88;4.65;;;;;;;16.89;81.56;95130.88;5079660;28;20105;-84
2022/07/09 05:33:57;;;;;;;9.27;5.00;;;;;;;16.68;84.36;95083.59;5059197;28;20028;-84
2022/07/09 05:36:22;;;;;;;10.70;5.78;;;;;;;16.96;85.22;95117.00;5058868;28;20090;-83
2022/07/09 05:38:48;;;;;;;5.07;4.55;;;;;;;16.11;82.42;95003.34;5062171;28;20031;-83
2022/07/09 05:41:18;;;;;;;8.25;5.00;;;;;;;17.28;82.68;95182.75;5068800;28;20335;-83
2022/07/09 05:43:43;;;;;;;10.82;5.00;;;;;;;16.99;83.62;95135.13;5081400;28;20545;-83
2022/07/09 05:46:08;;;;;;;7.93;5.32;;;;;;;16.62;82.00;95088.31;5081595;28;20039;-83
2022/07/09 05:48:34;;;;;;;6.03;4.68;;;;;;;17.13;82.43;95154.53;5060749;28;20093;-83
2022/07/09 05:50:59;;;;;;;11.18;4.72;;;;;;;16.99;83.03;95151.22;5075265;28;20051;-83
2022/07/09 05:53:25;;;;;;;6.57;5.45;;;;;;;16.18;83.95;95007.13;5064124;28;20044;-83
2022/07/09 05:55:50;;;;;;;6.85;4.10;;;;;;;17.18;82.02;95170.44;5059423;28;20495;-83
2022/07/09 05:58:16;;;;;;;7.22;5.03;;;;;;;17.31;84.03;95169.53;5061890;28;20078;-83
2022/07/09 06:00:41;;;;;;;5.85;4.50;;;;;;;17.13;82.77;95138.44;5057897;28;20040;-83
2022/07/09 06:03:07;;;;;;;4.93;4.28;;;;;;;17.05;82.16;95159.88;5061294;28;20422;-83
2022/07/09 06:05:32;;;;;;;4.88;4.07;;;;;;;17.28;82.82;95194.25;5060459;28;20474;-83
2022/07/09 06:07:57;;;;;;;5.30;4.28;;;;;;;17.15;81.54;95186.38;5059817;28;20442;-83
2022/07/09 06:10:23;;;;;;;7.93;4.63;;;;;;;16.96;82.92;95139.22;5061685;28;20028;-83
2022/07/09 06:12:48;;;;;;;5.78;3.97;;;;;;;16.93;82.47;95131.84;5058439;28;20039;-84
2022/07/09 06:15:14;;;;;;;6.57;4.80;;;;;;;16.40;82.59;95058.97;5045116;28;20092;-84
2022/07/09 06:17:39;;;;;;;8.75;4.88;;;;;;;15.88;81.87;94978.59;5079160;28;20055;-83
2022/07/09 06:20:06;;;;;;;7.20;4.03;;;;;;;16.66;82.01;95104.53;5060605;28;20052;-83
2022/07/09 06:22:32;;;;;;;5.95;4.57;;;;;;;16.93;83.60;95123.78;5058950;28;20086;-84
2022/07/09 06:24:57;;;;;;;9.77;4.30;;;;;;;16.91;81.46;95128.66;5058892;28;20558;-84
2022/07/09 06:27:23;;;;;;;7.82;4.82;;;;;;;17.19;82.25;95147.91;5059389;28;20570;-84
2022/07/09 06:29:48;;;;;;;7.45;4.20;;;;;;;16.72;80.87;95106.75;5078846;28;20463;-84
2022/07/09 06:32:14;;;;;;;5.28;4.53;;;;;;;16.93;81.69;95147.91;5078336;28;20044;-84
2022/07/09 06:34:39;;;;;;;5.00;3.90;;;;;;;17.08;83.01;95167.31;5076826;28;20078;-84
2022/07/09 06:37:05;;;;;;;9.00;4.28;;;;;;;16.77;81.83;95122.69;5059240;28;20104;-84
2022/07/09 06:39:45;;;;;;;10.40;5.00;;;;;;;17.31;82.38;95195.53;5059096;28;20371;-84
2022/07/09 06:42:15;;;;;;;7.97;5.07;;;;;;;17.04;82.47;95139.53;5056940;28;20122;-83
2022/07/09 06:44:41;;;;;;;5.07;4.57;;;;;;;17.09;82.01;95163.53;5058631;28;20331;-83
2022/07/09 06:47:06;;;;;;;6.88;4.82;;;;;;;16.91;82.02;95133.25;5075648;28;20101;-84
2022/07/09 06:49:32;;;;;;;4.60;4.00;;;;;;;17.40;82.14;95207.03;5059620;28;20568;-84
2022/07/09 06:51:57;;;;;;;5.90;3.65;;;;;;;16.76;81.50;95125.66;5059893;28;20421;-84
2022/07/09 06:54:23;;;;;;;4.20;3.80;;;;;;;16.93;82.22;95150.59;5059650;28;20051;-83
2022/07/09 06:56:49;;;;;;;8.25;4.75;;;;;;;16.78;82.86;95123.47;5068778;28;20044;-83
2022/07/09 06:59:14;;;;;;;6.93;4.50;;;;;;;17.27;83.65;95216.81;5070528;28;20063;-83
2022/07/09 07:01:40;;;;;;;7.50;4.32;;;;;;;16.79;82.63;95133.06;5062592;28;20048;-83
2022/07/09 07:04:06;;;;;;;4.90;4.40;;;;;;;16.90;83.61;95151.19;5062005;28;20044;-83
2022/07/09 07:06:32;;;;;;;4.30;3.88;;;;;;;16.56;82.09;95089.50;5062268;28;20247;-83
2022/07/09 07:08:58;;;;;;;6.32;4.15;;;;;;;17.15;83.14;95189.06;5081370;28;20124;-83
2022/07/09 07:11:24;;;;;;;6.60;3.90;;;;;;;16.98;81.59;95182.56;5066314;28;20059;-83
2022/07/09 07:13:49;;;;;;;5.78;5.18;;;;;;;16.74;83.61;95134.00;5065785;28;20036;-83
2022/07/09 07:16:15;;;;;;;8.27;5.13;;;;;;;16.76;82.52;95147.09;5048688;28;20124;-83
2022/07/09 07:18:40;;;;;;;6.25;4.85;;;;;;;16.67;83.58;95149.75;5063759;28;20028;-83
2022/07/09 07:21:06;;;;;;;7.10;4.63;;;;;;;16.92;83.78;95157.03;5083044;28;20139;-83
2022/07/09 07:23:31;;;;;;;6.63;5.10;;;;;;;16.87;82.16;95145.66;5078560;28;20036;-83
2022/07/09 07:25:58;;;;;;;7.32;4.57;;;;;;;17.09;83.03;95168.88;5052933;28;20053;-83
2022/07/09 07:28:23;;;;;;;5.00;4.50;;;;;;;17.28;82.41;95199.63;5049976;28;20032;-84
2022/07/09 07:30:49;;;;;;;11.13;5.15;;;;;;;16.88;83.58;95140.00;5063061;28;20025;-84
2022/07/09 07:33:14;;;;;;;8.18;4.60;;;;;;;16.88;81.57;95141.91;5056513;28;20044;-85
2022/07/09 07:35:39;;;;;;;5.35;4.85;;;;;;;16.89;80.88;95136.22;5052667;28;20032;-84
2022/07/09 07:38:05;;;;;;;6.80;4.93;;;;;;;17.11;82.00;95167.44;5069480;28;20707;-84
2022/07/09 07:40:31;;;;;;;8.23;5.30;;;;;;;17.21;83.72;95129.63;5088300;28;20047;-84
2022/07/09 07:42:56;;;;;;;10.15;5.63;;;;;;;17.83;82.81;95196.31;5072033;28;20034;-84
2022/07/09 07:45:22;;;;;;;6.93;5.82;;;;;;;17.88;82.96;95171.19;5067881;28;20071;-84
2022/07/09 07:47:47;;;;;;;13.65;5.47;;;;;;;18.09;81.77;95196.22;5062231;28;20032;-84
2022/07/09 07:50:12;;;;;;;6.60;5.15;;;;;;;18.12;79.76;95195.59;5063175;28;20032;-85
2022/07/09 07:52:38;;;;;;;17.27;5.93;;;;;;;17.76;80.05;95134.31;5043859;28;20033;-85
2022/07/09 07:55:04;;;;;;;8.55;5.40;;;;;;;18.20;78.82;95213.59;5045974;28;20024;-84
2022/07/09 07:57:29;;;;;;;12.63;6.57;;;;;;;17.92;80.42;95175.63;5060691;28;20052;-84
2022/07/09 07:59:55;;;;;;;6.85;5.70;;;;;;;17.94;78.95;95173.38;5061824;28;20036;-85
2022/07/09 08:02:20;;;;;;;8.75;5.63;;;;;;;17.81;79.28;95150.22;5081013;28;20851;-85
2022/07/09 08:04:46;;;;;;;10.75;5.28;;;;;;;18.18;78.70;95198.91;5064680;28;20214;-85
2022/07/09 08:07:11;;;;;;;9.25;5.07;;;;;;;17.92;79.12;95167.56;5093201;28;20032;-85
2022/07/09 08:09:37;;;;;;;9.80;6.53;;;;;;;18.00;79.85;95171.34;5061613;28;20111;-85
2022/07/09 08:12:02;;;;;;;8.38;5.63;;;;;;;18.13;78.62;95187.25;5062261;28;20887;-85
2022/07/09 08:14:28;;;;;;;12.02;4.78;;;;;;;17.86;78.07;95146.56;5062182;28;20067;-85
2022/07/09 08:16:53;;;;;;;5.30;4.80;;;;;;;18.37;79.50;95213.53;5062780;28;20301;-85
2022/07/09 08:19:19;;;;;;;13.60;5.40;;;;;;;18.03;78.25;95158.06;5061657;28;20039;-85
2022/07/09 08:21:44;;;;;;;7.80;4.55;;;;;;;18.44;77.75;95195.03;5063521;28;20047;-85
2022/07/09 08:24:09;;;;;;;11.57;4.95;;;;;;;17.83;79.02;95131.13;5082074;28;20097;-86
2022/07/09 08:26:35;;;;;;;9.40;5.00;;;;;;;17.36;77.95;95064.81;5081263;28;20031;-85
2022/07/09 08:29:00;;;;;;;6.45;4.45;;;;;;;17.72;77.13;95103.84;5075887;28;20541;-86
2022/07/09 08:31:26;;;;;;;6.80;4.38;;;;;;;17.82;78.29;95118.81;5060787;28;20058;-86
2022/07/09 08:33:52;;;;;;;9.68;4.28;;;;;;;18.34;76.49;95184.63;5060030;28;20183;-86
2022/07/09 08:36:17;;;;;;;8.88;6.28;;;;;;;18.09;79.17;95113.81;5063286;28;20065;-86
2022/07/09 08:38:43;;;;;;;6.22;4.75;;;;;;;18.47;76.58;95161.34;5079813;28;20063;-86
2022/07/09 08:41:09;;;;;;;6.90;4.47;;;;;;;18.38;76.24;95134.56;5084557;28;20553;-86
2022/07/09 08:43:37;;;;;;;8.88;4.05;;;;;;;18.84;76.00;95218.91;5081788;28;20035;-87
2022/07/09 08:46:03;;;;;;;6.25;4.20;;;;;;;18.61;75.62;95159.28;5059389;28;20532;-86
2022/07/09 08:48:33;;;;;;;4.93;4.22;;;;;;;18.88;75.38;95204.47;5070343;28;20028;-87
2022/07/09 08:50:59;;;;;;;7.80;4.80;;;;;;;17.20;75.59;94942.34;5062838;28;20024;-87
2022/07/09 08:53:27;;;;;;;4.18;3.72;;;;;;;18.53;74.48;95146.66;5080939;28;20089;-87
2022/07/09 08:55:54;;;;;;;12.07;5.22;;;;;;;18.66;74.36;95161.78;5062527;28;20504;-87
2022/07/09 08:58:19;;;;;;;8.95;6.38;;;;;;;18.21;74.19;95105.13;5062317;28;20086;-89
2022/07/09 09:00:48;;;;;;;5.47;4.25;;;;;;;18.91;75.40;95215.69;5061893;28;20127;-87
2022/07/09 09:03:14;;;;;;;8.23;4.18;;;;;;;18.95;74.66;95214.72;5061878;28;20054;-87
2022/07/09 09:05:39;;;;;;;11.18;5.32;;;;;;;18.49;75.12;95141.13;5062691;28;20032;-87
2022/07/09 09:08:24;;;;;;;6.30;5.13;;;;;;;18.86;75.55;95181.72;5063043;28;20035;-87
2022/07/09 09:10:50;;;;;;;8.63;4.97;;;;;;;18.37;76.28;95140.25;5058692;28;20802;-87
2022/07/09 09:13:16;;;;;;;6.20;4.53;;;;;;;18.84;76.70;95216.22;5063939;28;20046;-87
2022/07/09 09:15:43;;;;;;;12.85;5.85;;;;;;;18.85;76.38;95199.75;5072774;28;20465;-87
2022/07/09 09:18:09;;;;;;;8.07;5.28;;;;;;;18.51;76.26;95128.16;5063061;28;20028;-87
2022/07/09 09:20:34;;;;;;;5.57;4.93;;;;;;;18.80;75.93;95165.00;5063219;28;20054;-87
2022/07/09 09:23:02;;;;;;;6.60;4.60;;;;;;;18.97;75.12;95225.94;5063424;28;20047;-87
2022/07/09 09:25:28;;;;;;;7.43;5.00;;;;;;;18.69;74.40;95219.44;5055695;28;20040;-87
2022/07/09 09:27:55;;;;;;;8.52;5.00;;;;;;;17.91;75.51;95057.88;5057479;28;20099;-87
2022/07/09 09:30:22;;;;;;;5.78;5.15;;;;;;;19.00;75.07;95222.56;5074086;28;20036;-87
2022/07/09 09:33:02;;;;;;;10.40;5.05;;;;;;;18.22;75.93;95120.09;5061498;28;20098;-87
2022/07/09 09:35:42;;;;;;;12.00;5.60;;;;;;;18.13;76.51;95085.25;5074221;28;20077;-87
2022/07/09 09:38:07;;;;;;;11.65;6.25;;;;;;;19.12;75.84;95217.28;5077869;28;20204;-87
2022/07/09 09:40:35;;;;;;;9.40;6.35;;;;;;;19.04;70.86;95177.81;5081263;28;20381;-87
2022/07/09 09:43:02;;;;;;;9.70;6.10;;;;;;;19.44;70.86;95218.50;5062048;28;20454;-87
2022/07/09 09:45:28;;;;;;;6.65;5.97;;;;;;;18.69;69.73;95141.53;5072872;28;20063;-86
2022/07/09 09:47:54;;;;;;;8.52;5.20;;;;;;;17.91;69.59;94986.25;5064841;28;20045;-86
2022/07/09 09:50:24;;;;;;;11.18;6.90;;;;;;;19.45;70.95;95216.59;5075080;28;20386;-86
2022/07/09 09:52:52;;;;;;;9.27;5.72;;;;;;;19.15;69.50;95170.94;5077065;28;20036;-87
2022/07/09 09:55:19;;;;;;;7.28;5.13;;;;;;;19.41;68.89;95213.78;5077505;28;20033;-87
2022/07/09 09:57:45;;;;;;;6.13;5.40;;;;;;;17.08;70.23;94853.81;5057960;28;20056;-87
2022/07/09 10:00:13;;;;;;;9.85;5.97;;;;;;;19.29;70.08;95211.03;5062539;28;20070;-86
2022/07/09 10:02:43;;;;;;;8.70;6.65;;;;;;;19.25;72.33;95205.50;5061492;28;20044;-87
2022/07/09 10:05:09;;;;;;;8.75;6.40;;;;;;;18.58;72.32;95078.56;5044673;28;20119;-87
2022/07/09 10:07:34;;;;;;;6.22;5.63;;;;;;;18.70;71.75;95125.06;5062766;28;20497;-87
2022/07/09 10:10:00;;;;;;;8.85;6.38;;;;;;;19.17;72.86;95214.41;5074078;28;20051;-86
2022/07/09 10:12:28;;;;;;;8.27;6.47;;;;;;;19.29;72.25;95219.09;5049042;28;20043;-87
2022/07/09 10:14:54;;;;;;;7.95;5.03;;;;;;;17.60;71.98;94999.94;5059142;28;20639;-87
2022/07/09 10:17:19;;;;;;;14.00;6.22;;;;;;;18.51;72.97;95113.97;5073723;28;20094;-87
2022/07/09 10:20:03;;;;;;;18.08;7.45;;;;;;;19.17;74.63;95214.41;5062853;28;20502;-87
2022/07/09 10:22:43;;;;;;;7.05;6.22;;;;;;;18.54;75.32;95120.59;5062039;28;20032;-87
2022/07/09 10:25:11;;;;;;;14.48;6.68;;;;;;;17.78;77.12;94986.44;5063978;28;20051;-87
2022/07/09 10:27:49;;;;;;;6.95;6.05;;;;;;;19.51;74.37;95226.84;5052047;28;20036;-87
2022/07/09 10:30:28;;;;;;;8.50;6.07;;;;;;;19.57;74.46;95225.53;5055898;28;20536;-87
2022/07/09 10:33:08;;;;;;;7.32;5.38;;;;;;;19.53;73.26;95226.53;5059114;28;20072;-87
2022/07/09 10:35:48;;;;;;;5.97;4.55;;;;;;;17.48;73.11;94911.31;5050314;28;20036;-87
2022/07/09 10:38:16;;;;;;;7.40;4.95;;;;;;;19.26;72.23;95192.84;5062177;28;20111;-87
2022/07/09 10:40:44;;;;;;;7.53;4.85;;;;;;;17.85;72.01;94952.63;5061811;28;20070;-86
2022/07/09 10:43:11;;;;;;;6.10;4.22;;;;;;;18.89;69.21;95121.97;5061695;28;20043;-86
2022/07/09 10:45:44;;;;;;;4.50;2.80;;;;;;;19.38;68.64;95227.84;5065439;28;20051;-87
2022/07/09 10:48:11;;;;;;;10.93;2.95;;;;;;;17.20;68.79;94943.13;5065588;28;20046;-86
2022/07/09 10:50:39;;;;;;;3.95;2.97;;;;;;;18.46;72.37;95131.03;5066251;28;20054;-86
2022/07/09 10:53:05;;;;;;;5.47;4.05;;;;;;;18.63;75.33;95197.31;5063256;28;20051;-87
2022/07/09 10:55:31;;;;;;;8.98;3.55;;;;;;;18.41;77.01;95189.50;5061688;28;20032;-86
2022/07/09 10:57:57;;;;;;;2.80;2.58;;;;;;;18.31;76.59;95244.31;5072370;28;20135;-86
2022/07/09 11:00:25;;;;;;;6.65;3.22;;;;;;;16.41;76.67;94964.97;5058266;28;20041;-86
2022/07/09 11:03:05;;;;;;;10.13;3.13;;;;;;;18.08;77.44;95241.06;5052930;28;20089;-86
2022/07/09 11:05:33;;;;;;;4.97;3.55;;;;;;;16.93;79.08;95059.50;5072548;28;20517;-87
2022/07/09 11:07:58;;;;;;;4.82;3.25;;;;;;;18.06;78.55;95237.94;5062294;28;20028;-86
2022/07/09 11:10:26;;;;;;;5.97;2.97;;;;;;;17.40;79.05;95136.53;5053298;28;20037;-86
2022/07/09 11:12:52;;;;;;;10.40;3.92;;;;;;;16.76;78.31;95066.75;5056170;28;20155;-86
2022/07/09 11:15:19;;;;;;;6.43;3.22;;;;;;;17.70;78.69;95200.72;5061551;28;20033;-86
2022/07/09 11:17:54;;;;;;;7.60;3.70;;;;;;;17.89;77.57;95248.69;5058547;28;20040;-86
2022/07/09 11:20:20;;;;;;;6.55;2.92;;;;;;;16.95;78.24;95140.31;5064321;28;20036;-86
2022/07/09 11:22:49;;;;;;;6.15;3.80;;;;;;;17.62;78.93;95239.06;5047190;28;20142;-86
2022/07/09 11:25:16;;;;;;;3.08;2.78;;;;;;;17.29;77.66;95217.28;5064003;28;20502;-86
2022/07/09 11:27:42;;;;;;;5.65;3.25;;;;;;;17.12;78.69;95157.50;5059600;28;20510;-86